Terminal Aerodrome Forecast
Issued by NWS Chicago, IL

Home | Current Version | Previous Version | Graphics & Text | Print | Product List | Glossary On
Versions: 1 2 3 4 5 6 7 8 9 10 11 12 13 14 15 16 17 18 19 20 21 22
000
FTUS43 KLOT 250255 AAA
TAFRFD
TAF AMD
KRFD 250255Z 2503/2524 VRB04KT P6SM BKN100
     FM250500 04012G21KT P6SM FEW025 BKN100
     FM251200 02013KT P6SM SCT250=

USA.gov is the U.S. government's official web portal to all federal, state and local government web resources and services.